sensor_id;sensor_type;location;lat;lon;timestamp;pressure;altitude;pressure_sealevel;temperature;humidity
33185;BME280;19550;42.872;25.494;2023-07-16T00:00:54;96607.03;;;20.54;100.00
33185;BME280;19550;42.872;25.494;2023-07-16T00:03:22;96610.50;;;20.44;100.00
33185;BME280;19550;42.872;25.494;2023-07-16T00:05:49;96596.53;;;20.51;100.00
33185;BME280;19550;42.872;25.494;2023-07-16T00:08:16;96605.31;;;20.46;100.00
33185;BME280;19550;42.872;25.494;2023-07-16T00:10:43;96607.34;;;20.49;100.00
33185;BME280;19550;42.872;25.494;2023-07-16T00:13:11;96607.66;;;20.40;100.00
33185;BME280;19550;42.872;25.494;2023-07-16T00:15:37;96596.78;;;20.42;100.00
33185;BME280;19550;42.872;25.494;2023-07-16T00:18:04;96600.00;;;20.41;100.00
33185;BME280;19550;42.872;25.494;2023-07-16T00:20:33;96600.50;;;20.46;100.00
33185;BME280;19550;42.872;25.494;2023-07-16T00:23:00;96604.38;;;20.38;100.00
33185;BME280;19550;42.872;25.494;2023-07-16T00:25:26;96592.06;;;20.23;100.00
33185;BME280;19550;42.872;25.494;2023-07-16T00:27:53;96601.38;;;20.28;100.00
33185;BME280;19550;42.872;25.494;2023-07-16T00:30:20;96594.94;;;20.27;100.00
33185;BME280;19550;42.872;25.494;2023-07-16T00:32:47;96604.50;;;20.22;100.00
33185;BME280;19550;42.872;25.494;2023-07-16T00:35:14;96602.34;;;20.12;100.00
33185;BME280;19550;42.872;25.494;2023-07-16T00:37:42;96586.31;;;20.16;100.00
33185;BME280;19550;42.872;25.494;2023-07-16T00:40:10;96595.09;;;20.11;100.00
33185;BME280;19550;42.872;25.494;2023-07-16T00:42:37;96587.50;;;20.15;100.00
33185;BME280;19550;42.872;25.494;2023-07-16T00:45:09;96591.00;;;20.09;100.00
33185;BME280;19550;42.872;25.494;2023-07-16T00:47:38;96588.41;;;19.97;100.00
33185;BME280;19550;42.872;25.494;2023-07-16T00:50:06;96577.97;;;19.97;100.00
33185;BME280;19550;42.872;25.494;2023-07-16T00:52:34;96585.69;;;20.00;100.00
33185;BME280;19550;42.872;25.494;2023-07-16T00:55:02;96580.16;;;20.07;100.00
33185;BME280;19550;42.872;25.494;2023-07-16T00:57:29;96582.56;;;20.09;100.00
33185;BME280;19550;42.872;25.494;2023-07-16T00:59:57;96579.72;;;20.05;100.00
33185;BME280;19550;42.872;25.494;2023-07-16T01:02:25;96578.91;;;20.05;100.00
33185;BME280;19550;42.872;25.494;2023-07-16T01:04:52;96592.00;;;19.94;100.00
33185;BME280;19550;42.872;25.494;2023-07-16T01:07:21;96575.84;;;19.91;100.00
33185;BME280;19550;42.872;25.494;2023-07-16T01:09:50;96581.72;;;19.82;100.00
33185;BME280;19550;42.872;25.494;2023-07-16T01:12:20;96573.00;;;19.87;100.00
33185;BME280;19550;42.872;25.494;2023-07-16T01:14:47;96582.25;;;19.88;100.00
33185;BME280;19550;42.872;25.494;2023-07-16T01:17:14;96571.25;;;19.79;100.00
33185;BME280;19550;42.872;25.494;2023-07-16T01:19:41;96577.38;;;19.84;100.00
33185;BME280;19550;42.872;25.494;2023-07-16T01:22:22;96578.22;;;19.89;100.00
33185;BME280;19550;42.872;25.494;2023-07-16T01:25:05;96579.34;;;19.84;100.00
33185;BME280;19550;42.872;25.494;2023-07-16T01:27:59;96581.72;;;19.82;100.00
33185;BME280;19550;42.872;25.494;2023-07-16T01:30:35;96575.38;;;19.85;100.00
33185;BME280;19550;42.872;25.494;2023-07-16T01:33:03;96573.63;;;19.77;100.00
33185;BME280;19550;42.872;25.494;2023-07-16T01:35:31;96565.94;;;19.74;100.00
33185;BME280;19550;42.872;25.494;2023-07-16T01:37:59;96568.31;;;19.72;100.00
33185;BME280;19550;42.872;25.494;2023-07-16T01:40:26;96563.19;;;19.77;100.00
33185;BME280;19550;42.872;25.494;2023-07-16T01:42:53;96568.31;;;19.72;100.00
33185;BME280;19550;42.872;25.494;2023-07-16T01:45:19;96575.50;;;19.69;100.00
33185;BME280;19550;42.872;25.494;2023-07-16T01:47:55;96571.81;;;19.65;100.00
33185;BME280;19550;42.872;25.494;2023-07-16T01:50:26;96570.63;;;19.66;100.00
33185;BME280;19550;42.872;25.494;2023-07-16T01:52:53;96575.38;;;19.62;100.00
33185;BME280;19550;42.872;25.494;2023-07-16T01:55:20;96569.75;;;19.62;100.00
33185;BME280;19550;42.872;25.494;2023-07-16T01:57:47;96565.63;;;19.56;100.00
33185;BME280;19550;42.872;25.494;2023-07-16T02:00:14;96568.78;;;19.55;100.00
33185;BME280;19550;42.872;25.494;2023-07-16T02:02:41;96570.00;;;19.54;100.00
33185;BME280;19550;42.872;25.494;2023-07-16T02:05:09;96565.63;;;19.56;100.00
33185;BME280;19550;42.872;25.494;2023-07-16T02:07:36;96567.69;;;19.59;100.00
33185;BME280;19550;42.872;25.494;2023-07-16T02:10:03;96571.19;;;19.53;100.00
33185;BME280;19550;42.872;25.494;2023-07-16T02:12:30;96560.97;;;19.44;100.00
33185;BME280;19550;42.872;25.494;2023-07-16T02:14:57;96568.22;;;19.45;100.00
33185;BME280;19550;42.872;25.494;2023-07-16T02:17:24;96567.72;;;19.40;100.00
33185;BME280;19550;42.872;25.494;2023-07-16T02:19:50;96558.03;;;19.37;100.00
33185;BME280;19550;42.872;25.494;2023-07-16T02:22:19;96562.84;;;19.37;100.00
33185;BME280;19550;42.872;25.494;2023-07-16T02:24:45;96563.19;;;19.35;100.00
33185;BME280;19550;42.872;25.494;2023-07-16T02:27:12;96565.97;;;19.32;100.00
33185;BME280;19550;42.872;25.494;2023-07-16T02:29:39;96558.66;;;19.27;100.00
33185;BME280;19550;42.872;25.494;2023-07-16T02:32:07;96566.69;;;19.29;100.00
33185;BME280;19550;42.872;25.494;2023-07-16T02:34:33;96567.00;;;19.24;100.00
33185;BME280;19550;42.872;25.494;2023-07-16T02:37:00;96563.38;;;19.23;100.00
33185;BME280;19550;42.872;25.494;2023-07-16T02:39:28;96565.31;;;19.19;100.00
33185;BME280;19550;42.872;25.494;2023-07-16T02:41:55;96568.50;;;19.18;100.00
33185;BME280;19550;42.872;25.494;2023-07-16T02:44:22;96566.81;;;19.13;100.00
33185;BME280;19550;42.872;25.494;2023-07-16T02:46:49;96563.25;;;19.16;100.00
33185;BME280;19550;42.872;25.494;2023-07-16T02:49:16;96570.81;;;19.12;100.00
33185;BME280;19550;42.872;25.494;2023-07-16T02:51:43;96556.38;;;19.14;100.00
33185;BME280;19550;42.872;25.494;2023-07-16T02:54:10;96567.22;;;19.15;100.00
33185;BME280;19550;42.872;25.494;2023-07-16T02:56:38;96576.41;;;19.12;100.00
33185;BME280;19550;42.872;25.494;2023-07-16T02:59:06;96577.16;;;19.09;100.00
33185;BME280;19550;42.872;25.494;2023-07-16T03:01:32;96575.53;;;19.08;100.00
33185;BME280;19550;42.872;25.494;2023-07-16T03:03:59;96577.47;;;19.04;100.00
33185;BME280;19550;42.872;25.494;2023-07-16T03:06:26;96579.09;;;19.05;100.00
33185;BME280;19550;42.872;25.494;2023-07-16T03:08:53;96573.03;;;19.03;100.00
33185;BME280;19550;42.872;25.494;2023-07-16T03:11:20;96574.66;;;19.04;100.00
33185;BME280;19550;42.872;25.494;2023-07-16T03:13:48;96576.72;;;19.07;100.00
33185;BME280;19550;42.872;25.494;2023-07-16T03:16:15;96575.16;;;19.10;100.00
33185;BME280;19550;42.872;25.494;2023-07-16T03:18:43;96577.16;;;19.09;100.00
33185;BME280;19550;42.872;25.494;2023-07-16T03:21:10;96582.50;;;19.14;100.00
33185;BME280;19550;42.872;25.494;2023-07-16T03:23:37;96579.50;;;19.26;100.00
33185;BME280;19550;42.872;25.494;2023-07-16T03:26:03;96585.88;;;19.23;100.00
33185;BME280;19550;42.872;25.494;2023-07-16T03:28:30;96587.81;;;19.19;100.00
33185;BME280;19550;42.872;25.494;2023-07-16T03:30:58;96583.00;;;19.20;100.00
33185;BME280;19550;42.872;25.494;2023-07-16T03:33:25;96585.56;;;19.28;100.00
33185;BME280;19550;42.872;25.494;2023-07-16T03:35:52;96581.56;;;19.29;100.00
33185;BME280;19550;42.872;25.494;2023-07-16T03:38:19;96584.78;;;19.28;100.00
33185;BME280;19550;42.872;25.494;2023-07-16T03:40:47;96590.22;;;19.40;100.00
33185;BME280;19550;42.872;25.494;2023-07-16T03:43:15;96591.91;;;19.44;100.00
33185;BME280;19550;42.872;25.494;2023-07-16T03:45:42;96591.97;;;19.48;100.00
33185;BME280;19550;42.872;25.494;2023-07-16T03:48:10;96592.91;;;19.56;100.00
33185;BME280;19550;42.872;25.494;2023-07-16T03:50:37;96594.88;;;19.52;100.00
33185;BME280;19550;42.872;25.494;2023-07-16T03:53:04;96603.47;;;19.62;100.00
33185;BME280;19550;42.872;25.494;2023-07-16T03:55:31;96590.81;;;19.72;100.00
33185;BME280;19550;42.872;25.494;2023-07-16T03:57:58;96595.31;;;19.76;100.00
33185;BME280;19550;42.872;25.494;2023-07-16T04:00:25;96601.19;;;19.91;100.00
33185;BME280;19550;42.872;25.494;2023-07-16T04:02:53;96595.63;;;19.94;100.00
33185;BME280;19550;42.872;25.494;2023-07-16T04:05:21;96602.97;;;20.02;100.00
33185;BME280;19550;42.872;25.494;2023-07-16T04:07:48;96608.72;;;20.09;100.00
33185;BME280;19550;42.872;25.494;2023-07-16T04:10:15;96602.38;;;20.16;100.00
33185;BME280;19550;42.872;25.494;2023-07-16T04:12:42;96604.94;;;20.24;100.00
33185;BME280;19550;42.872;25.494;2023-07-16T04:15:09;96608.63;;;20.29;100.00
33185;BME280;19550;42.872;25.494;2023-07-16T04:17:36;96608.03;;;20.39;100.00
33185;BME280;19550;42.872;25.494;2023-07-16T04:20:04;96611.06;;;20.53;100.00
33185;BME280;19550;42.872;25.494;2023-07-16T04:22:33;96611.56;;;20.62;100.00
33185;BME280;19550;42.872;25.494;2023-07-16T04:25:00;96609.53;;;20.59;100.00
33185;BME280;19550;42.872;25.494;2023-07-16T04:27:27;96611.97;;;20.60;100.00
33185;BME280;19550;42.872;25.494;2023-07-16T04:29:53;96615.78;;;20.75;100.00
33185;BME280;19550;42.872;25.494;2023-07-16T04:32:20;96620.91;;;20.66;100.00
33185;BME280;19550;42.872;25.494;2023-07-16T04:34:47;96621.81;;;20.74;100.00
33185;BME280;19550;42.872;25.494;2023-07-16T04:37:14;96626.41;;;20.85;100.00
33185;BME280;19550;42.872;25.494;2023-07-16T04:39:42;96622.50;;;20.97;100.00
33185;BME280;19550;42.872;25.494;2023-07-16T04:42:09;96627.50;;;21.07;100.00
33185;BME280;19550;42.872;25.494;2023-07-16T04:47:02;96621.31;;;21.28;100.00
33185;BME280;19550;42.872;25.494;2023-07-16T04:49:29;96631.56;;;21.43;100.00
33185;BME280;19550;42.872;25.494;2023-07-16T04:51:56;96628.56;;;21.62;100.00
33185;BME280;19550;42.872;25.494;2023-07-16T04:54:23;96631.53;;;21.76;100.00
33185;BME280;19550;42.872;25.494;2023-07-16T04:56:51;96629.22;;;21.86;100.00
33185;BME280;19550;42.872;25.494;2023-07-16T04:59:18;96625.00;;;22.09;100.00
33185;BME280;19550;42.872;25.494;2023-07-16T05:01:45;96635.25;;;22.28;100.00
33185;BME280;19550;42.872;25.494;2023-07-16T05:04:11;96622.00;;;22.36;100.00
33185;BME280;19550;42.872;25.494;2023-07-16T05:06:38;96628.63;;;22.57;100.00
33185;BME280;19550;42.872;25.494;2023-07-16T05:09:05;96625.84;;;22.65;100.00
33185;BME280;19550;42.872;25.494;2023-07-16T05:11:32;96627.13;;;22.74;100.00
33185;BME280;19550;42.872;25.494;2023-07-16T05:14:00;96634.09;;;22.91;100.00
33185;BME280;19550;42.872;25.494;2023-07-16T05:16:27;96631.31;;;22.98;100.00
33185;BME280;19550;42.872;25.494;2023-07-16T05:18:54;96624.16;;;23.22;100.00
33185;BME280;19550;42.872;25.494;2023-07-16T05:21:20;96632.31;;;23.37;100.00
33185;BME280;19550;42.872;25.494;2023-07-16T05:23:47;96631.59;;;23.62;100.00
33185;BME280;19550;42.872;25.494;2023-07-16T05:26:14;96630.81;;;23.68;100.00
33185;BME280;19550;42.872;25.494;2023-07-16T05:28:41;96634.88;;;23.82;100.00
33185;BME280;19550;42.872;25.494;2023-07-16T05:31:09;96642.59;;;23.95;100.00
33185;BME280;19550;42.872;25.494;2023-07-16T05:33:36;96638.97;;;24.09;100.00
33185;BME280;19550;42.872;25.494;2023-07-16T05:36:03;96638.22;;;24.19;100.00
33185;BME280;19550;42.872;25.494;2023-07-16T05:38:30;96651.16;;;24.34;100.00
33185;BME280;19550;42.872;25.494;2023-07-16T05:41:00;96646.69;;;24.58;100.00
33185;BME280;19550;42.872;25.494;2023-07-16T05:43:28;96647.88;;;24.82;100.00
33185;BME280;19550;42.872;25.494;2023-07-16T05:45:54;96647.91;;;25.00;100.00
33185;BME280;19550;42.872;25.494;2023-07-16T05:48:23;96645.41;;;25.16;100.00
33185;BME280;19550;42.872;25.494;2023-07-16T05:50:50;96650.63;;;25.28;100.00
33185;BME280;19550;42.872;25.494;2023-07-16T05:53:17;96646.91;;;25.42;100.00
33185;BME280;19550;42.872;25.494;2023-07-16T05:55:44;96646.88;;;25.56;98.81
33185;BME280;19550;42.872;25.494;2023-07-16T05:58:11;96641.56;;;25.72;98.19
33185;BME280;19550;42.872;25.494;2023-07-16T06:00:38;96649.50;;;25.98;97.52
33185;BME280;19550;42.872;25.494;2023-07-16T06:03:05;96650.16;;;26.20;96.85
33185;BME280;19550;42.872;25.494;2023-07-16T06:05:34;96650.50;;;26.33;94.65
33185;BME280;19550;42.872;25.494;2023-07-16T06:08:02;96648.75;;;26.49;94.18
33185;BME280;19550;42.872;25.494;2023-07-16T06:10:29;96655.13;;;26.64;92.93
33185;BME280;19550;42.872;25.494;2023-07-16T06:12:55;96650.41;;;26.88;91.31
33185;BME280;19550;42.872;25.494;2023-07-16T06:15:22;96648.31;;;26.99;91.32
33185;BME280;19550;42.872;25.494;2023-07-16T06:17:49;96653.03;;;27.13;89.86
33185;BME280;19550;42.872;25.494;2023-07-16T06:20:16;96653.69;;;27.27;89.63
33185;BME280;19550;42.872;25.494;2023-07-16T06:22:44;96656.13;;;27.29;87.61
33185;BME280;19550;42.872;25.494;2023-07-16T06:25:11;96655.47;;;27.48;88.02
33185;BME280;19550;42.872;25.494;2023-07-16T06:27:38;96658.59;;;27.61;88.16
33185;BME280;19550;42.872;25.494;2023-07-16T06:30:06;96651.53;;;27.73;86.24
33185;BME280;19550;42.872;25.494;2023-07-16T06:32:33;96651.75;;;27.58;87.17
33185;BME280;19550;42.872;25.494;2023-07-16T06:35:00;96660.84;;;27.77;88.40
33185;BME280;19550;42.872;25.494;2023-07-16T06:37:27;96654.50;;;27.92;87.21
33185;BME280;19550;42.872;25.494;2023-07-16T06:39:55;96657.50;;;28.12;85.19
33185;BME280;19550;42.872;25.494;2023-07-16T06:42:22;96653.13;;;28.34;85.53
33185;BME280;19550;42.872;25.494;2023-07-16T06:44:48;96659.28;;;28.56;84.38
33185;BME280;19550;42.872;25.494;2023-07-16T06:47:15;96663.44;;;28.78;83.55
33185;BME280;19550;42.872;25.494;2023-07-16T06:49:42;96650.31;;;29.04;81.91
33185;BME280;19550;42.872;25.494;2023-07-16T06:52:18;96658.97;;;29.20;81.83
33185;BME280;19550;42.872;25.494;2023-07-16T06:54:45;96656.00;;;29.28;79.75
33185;BME280;19550;42.872;25.494;2023-07-16T06:57:13;96653.84;;;29.35;78.33
33185;BME280;19550;42.872;25.494;2023-07-16T06:59:40;96658.50;;;29.45;80.49
33185;BME280;19550;42.872;25.494;2023-07-16T07:02:07;96650.03;;;29.61;78.30
33185;BME280;19550;42.872;25.494;2023-07-16T07:04:34;96655.50;;;29.72;77.10
33185;BME280;19550;42.872;25.494;2023-07-16T07:07:00;96649.88;;;29.88;77.49
33185;BME280;19550;42.872;25.494;2023-07-16T07:09:27;96661.66;;;30.10;78.25
33185;BME280;19550;42.872;25.494;2023-07-16T07:11:54;96654.50;;;30.02;75.64
33185;BME280;19550;42.872;25.494;2023-07-16T07:14:22;96656.19;;;29.99;74.94
33185;BME280;19550;42.872;25.494;2023-07-16T07:16:49;96660.50;;;30.08;74.53
33185;BME280;19550;42.872;25.494;2023-07-16T07:19:16;96665.50;;;30.04;73.20
33185;BME280;19550;42.872;25.494;2023-07-16T07:21:43;96657.69;;;30.24;73.56
33185;BME280;19550;42.872;25.494;2023-07-16T07:24:09;96663.13;;;30.34;71.89
33185;BME280;19550;42.872;25.494;2023-07-16T07:26:36;96663.84;;;30.38;74.15
33185;BME280;19550;42.872;25.494;2023-07-16T07:29:03;96673.13;;;30.62;71.01
33185;BME280;19550;42.872;25.494;2023-07-16T07:31:31;96667.78;;;30.64;69.74
33185;BME280;19550;42.872;25.494;2023-07-16T07:33:58;96656.50;;;30.73;69.86
33185;BME280;19550;42.872;25.494;2023-07-16T07:36:25;96657.38;;;30.87;71.70
33185;BME280;19550;42.872;25.494;2023-07-16T07:38:52;96652.91;;;31.18;69.00
33185;BME280;19550;42.872;25.494;2023-07-16T07:41:18;96647.44;;;31.07;69.69
33185;BME280;19550;42.872;25.494;2023-07-16T07:43:45;96646.25;;;31.37;68.49
33185;BME280;19550;42.872;25.494;2023-07-16T07:46:12;96654.84;;;31.37;67.72
33185;BME280;19550;42.872;25.494;2023-07-16T07:48:40;96653.28;;;31.49;67.54
33185;BME280;19550;42.872;25.494;2023-07-16T07:51:07;96662.06;;;31.42;67.25
33185;BME280;19550;42.872;25.494;2023-07-16T07:53:34;96652.41;;;31.36;66.91
33185;BME280;19550;42.872;25.494;2023-07-16T07:56:01;96660.25;;;31.48;67.45
33185;BME280;19550;42.872;25.494;2023-07-16T07:58:28;96657.56;;;31.57;66.71
33185;BME280;19550;42.872;25.494;2023-07-16T08:00:54;96650.09;;;31.88;65.19
33185;BME280;19550;42.872;25.494;2023-07-16T08:03:21;96645.53;;;31.91;63.85
33185;BME280;19550;42.872;25.494;2023-07-16T08:05:49;96648.00;;;32.18;64.29
33185;BME280;19550;42.872;25.494;2023-07-16T08:08:16;96650.75;;;32.21;62.36
33185;BME280;19550;42.872;25.494;2023-07-16T08:10:43;96653.38;;;32.16;62.17
33185;BME280;19550;42.872;25.494;2023-07-16T08:13:11;96656.72;;;32.27;61.51
33185;BME280;19550;42.872;25.494;2023-07-16T08:15:38;96649.03;;;32.24;61.08
33185;BME280;19550;42.872;25.494;2023-07-16T08:18:05;96658.19;;;32.19;61.31
33185;BME280;19550;42.872;25.494;2023-07-16T08:20:31;96656.16;;;32.32;60.28
33185;BME280;19550;42.872;25.494;2023-07-16T08:23:00;96655.81;;;32.43;59.31
33185;BME280;19550;42.872;25.494;2023-07-16T08:25:27;96662.47;;;32.40;58.41
33185;BME280;19550;42.872;25.494;2023-07-16T08:27:54;96651.34;;;32.54;57.43
33185;BME280;19550;42.872;25.494;2023-07-16T08:30:21;96656.63;;;32.81;56.50
33185;BME280;19550;42.872;25.494;2023-07-16T08:32:48;96653.38;;;32.92;56.53
33185;BME280;19550;42.872;25.494;2023-07-16T08:35:15;96660.06;;;32.89;56.22
33185;BME280;19550;42.872;25.494;2023-07-16T08:37:43;96662.47;;;32.90;52.30
33185;BME280;19550;42.872;25.494;2023-07-16T08:40:12;96650.88;;;32.56;51.95
33185;BME280;19550;42.872;25.494;2023-07-16T08:42:40;96654.53;;;32.94;54.06
33185;BME280;19550;42.872;25.494;2023-07-16T08:45:10;96653.69;;;33.19;53.53
33185;BME280;19550;42.872;25.494;2023-07-16T08:47:37;96663.13;;;33.20;52.93
33185;BME280;19550;42.872;25.494;2023-07-16T08:50:04;96667.91;;;33.35;51.88
33185;BME280;19550;42.872;25.494;2023-07-16T08:52:31;96668.09;;;32.94;50.12
33185;BME280;19550;42.872;25.494;2023-07-16T08:54:58;96673.97;;;32.90;46.06
33185;BME280;19550;42.872;25.494;2023-07-16T08:57:26;96666.03;;;32.82;47.34
33185;BME280;19550;42.872;25.494;2023-07-16T08:59:55;96662.94;;;32.51;47.86
33185;BME280;19550;42.872;25.494;2023-07-16T09:02:23;96664.34;;;32.84;47.98
33185;BME280;19550;42.872;25.494;2023-07-16T09:04:50;96662.25;;;32.97;47.05
33185;BME280;19550;42.872;25.494;2023-07-16T09:07:17;96658.19;;;33.20;50.02
33185;BME280;19550;42.872;25.494;2023-07-16T09:09:54;96663.69;;;33.14;50.37
33185;BME280;19550;42.872;25.494;2023-07-16T09:12:23;96666.91;;;33.29;48.09
33185;BME280;19550;42.872;25.494;2023-07-16T09:14:52;96660.38;;;33.50;49.80
33185;BME280;19550;42.872;25.494;2023-07-16T09:17:20;96664.69;;;33.33;47.85
33185;BME280;19550;42.872;25.494;2023-07-16T09:19:48;96657.06;;;33.39;47.58
33185;BME280;19550;42.872;25.494;2023-07-16T09:22:16;96665.19;;;33.53;49.42
33185;BME280;19550;42.872;25.494;2023-07-16T09:24:44;96667.78;;;33.73;49.96
33185;BME280;19550;42.872;25.494;2023-07-16T09:27:12;96663.63;;;33.74;47.06
33185;BME280;19550;42.872;25.494;2023-07-16T09:29:39;96660.75;;;33.74;46.51
33185;BME280;19550;42.872;25.494;2023-07-16T09:32:08;96653.97;;;33.68;47.70
33185;BME280;19550;42.872;25.494;2023-07-16T09:34:34;96658.41;;;33.82;47.39
33185;BME280;19550;42.872;25.494;2023-07-16T09:37:02;96667.97;;;33.79;45.27
33185;BME280;19550;42.872;25.494;2023-07-16T09:39:29;96665.50;;;33.90;46.05
33185;BME280;19550;42.872;25.494;2023-07-16T09:41:57;96661.88;;;33.99;44.43
33185;BME280;19550;42.872;25.494;2023-07-16T09:44:24;96662.41;;;34.06;45.34
33185;BME280;19550;42.872;25.494;2023-07-16T09:46:51;96659.72;;;34.12;44.84
33185;BME280;19550;42.872;25.494;2023-07-16T09:49:19;96653.97;;;34.12;45.88
33185;BME280;19550;42.872;25.494;2023-07-16T09:51:48;96658.72;;;34.06;45.91
33185;BME280;19550;42.872;25.494;2023-07-16T09:54:15;96648.47;;;34.26;42.92
33185;BME280;19550;42.872;25.494;2023-07-16T09:56:45;96651.28;;;34.17;43.48
33185;BME280;19550;42.872;25.494;2023-07-16T09:59:16;96653.28;;;34.60;44.61
33185;BME280;19550;42.872;25.494;2023-07-16T10:01:43;96645.03;;;34.72;43.53
33185;BME280;19550;42.872;25.494;2023-07-16T10:04:12;96644.94;;;34.93;43.49
33185;BME280;19550;42.872;25.494;2023-07-16T10:06:49;96651.66;;;34.90;42.00
33185;BME280;19550;42.872;25.494;2023-07-16T10:09:32;96638.56;;;35.07;42.31
33185;BME280;19550;42.872;25.494;2023-07-16T10:12:16;96652.19;;;35.07;40.06
33185;BME280;19550;42.872;25.494;2023-07-16T10:14:44;96647.44;;;34.73;40.90
33185;BME280;19550;42.872;25.494;2023-07-16T10:17:15;96640.44;;;34.92;41.72
33185;BME280;19550;42.872;25.494;2023-07-16T10:19:50;96636.31;;;35.12;40.66
33185;BME280;19550;42.872;25.494;2023-07-16T10:22:19;96638.91;;;35.19;39.89
33185;BME280;19550;42.872;25.494;2023-07-16T10:24:52;96633.81;;;35.23;41.73
33185;BME280;19550;42.872;25.494;2023-07-16T10:27:30;96635.59;;;35.47;41.58
33185;BME280;19550;42.872;25.494;2023-07-16T10:29:58;96633.03;;;35.40;40.38
33185;BME280;19550;42.872;25.494;2023-07-16T10:32:27;96624.00;;;35.20;40.00
33185;BME280;19550;42.872;25.494;2023-07-16T10:34:55;96631.25;;;35.34;40.02
33185;BME280;19550;42.872;25.494;2023-07-16T10:37:24;96629.66;;;35.33;39.38
33185;BME280;19550;42.872;25.494;2023-07-16T10:39:52;96632.06;;;35.62;39.19
33185;BME280;19550;42.872;25.494;2023-07-16T10:42:20;96634.63;;;35.87;40.58
33185;BME280;19550;42.872;25.494;2023-07-16T10:44:50;96637.66;;;35.93;38.64
33185;BME280;19550;42.872;25.494;2023-07-16T10:47:19;96630.31;;;35.82;37.89
33185;BME280;19550;42.872;25.494;2023-07-16T10:49:49;96628.25;;;35.83;38.68
33185;BME280;19550;42.872;25.494;2023-07-16T10:52:17;96625.13;;;36.14;37.96
33185;BME280;19550;42.872;25.494;2023-07-16T10:54:45;96621.75;;;36.15;36.35
33185;BME280;19550;42.872;25.494;2023-07-16T10:57:13;96630.78;;;35.90;36.16
33185;BME280;19550;42.872;25.494;2023-07-16T10:59:41;96627.25;;;35.68;37.00
33185;BME280;19550;42.872;25.494;2023-07-16T11:02:11;96631.56;;;35.91;37.79
33185;BME280;19550;42.872;25.494;2023-07-16T11:04:38;96624.84;;;35.57;39.35
33185;BME280;19550;42.872;25.494;2023-07-16T11:07:07;96632.59;;;35.69;38.33
33185;BME280;19550;42.872;25.494;2023-07-16T11:09:39;96633.81;;;35.68;38.48
33185;BME280;19550;42.872;25.494;2023-07-16T11:12:09;96623.09;;;35.60;40.12
33185;BME280;19550;42.872;25.494;2023-07-16T11:14:36;96630.63;;;35.84;39.57
33185;BME280;19550;42.872;25.494;2023-07-16T11:17:04;96625.03;;;35.90;38.78
33185;BME280;19550;42.872;25.494;2023-07-16T11:19:32;96625.81;;;35.81;38.43
33185;BME280;19550;42.872;25.494;2023-07-16T11:22:00;96625.50;;;35.70;38.85
33185;BME280;19550;42.872;25.494;2023-07-16T11:24:27;96617.16;;;35.81;38.90
33185;BME280;19550;42.872;25.494;2023-07-16T11:26:55;96615.66;;;36.13;38.47
33185;BME280;19550;42.872;25.494;2023-07-16T11:29:24;96614.81;;;36.31;38.05
33185;BME280;19550;42.872;25.494;2023-07-16T11:31:51;96608.63;;;36.56;37.70
33185;BME280;19550;42.872;25.494;2023-07-16T11:34:21;96603.41;;;36.79;37.33
33185;BME280;19550;42.872;25.494;2023-07-16T11:36:48;96608.00;;;37.18;37.21
33185;BME280;19550;42.872;25.494;2023-07-16T11:39:15;96602.53;;;37.20;37.62
33185;BME280;19550;42.872;25.494;2023-07-16T11:41:42;96606.41;;;36.84;37.11
33185;BME280;19550;42.872;25.494;2023-07-16T11:44:19;96597.91;;;36.90;36.92
33185;BME280;19550;42.872;25.494;2023-07-16T11:46:48;96602.88;;;37.37;36.82
33185;BME280;19550;42.872;25.494;2023-07-16T11:49:14;96606.50;;;36.99;37.65
33185;BME280;19550;42.872;25.494;2023-07-16T11:51:41;96606.66;;;37.28;36.63
33185;BME280;19550;42.872;25.494;2023-07-16T11:54:10;96609.81;;;37.30;36.01
33185;BME280;19550;42.872;25.494;2023-07-16T11:56:37;96614.84;;;36.97;37.21
33185;BME280;19550;42.872;25.494;2023-07-16T11:59:04;96602.63;;;37.26;37.08
33185;BME280;19550;42.872;25.494;2023-07-16T12:01:30;96612.47;;;37.67;36.70
33185;BME280;19550;42.872;25.494;2023-07-16T12:03:58;96611.66;;;37.66;35.81
33185;BME280;19550;42.872;25.494;2023-07-16T12:06:25;96607.78;;;37.69;36.24
33185;BME280;19550;42.872;25.494;2023-07-16T12:08:52;96610.63;;;37.07;36.56
33185;BME280;19550;42.872;25.494;2023-07-16T12:11:20;96607.59;;;36.36;37.90
33185;BME280;19550;42.872;25.494;2023-07-16T12:13:47;96603.06;;;35.47;39.61
33185;BME280;19550;42.872;25.494;2023-07-16T12:16:14;96606.53;;;34.96;45.45
33185;BME280;19550;42.872;25.494;2023-07-16T12:18:41;96605.31;;;35.43;42.27
33185;BME280;19550;42.872;25.494;2023-07-16T12:21:09;96604.50;;;35.88;40.82
33185;BME280;19550;42.872;25.494;2023-07-16T12:23:35;96602.22;;;36.52;39.11
33185;BME280;19550;42.872;25.494;2023-07-16T12:26:02;96607.66;;;36.92;38.87
33185;BME280;19550;42.872;25.494;2023-07-16T12:28:29;96606.41;;;36.84;38.24
33185;BME280;19550;42.872;25.494;2023-07-16T12:30:56;96604.13;;;37.21;38.23
33185;BME280;19550;42.872;25.494;2023-07-16T12:33:23;96605.72;;;37.22;38.40
33185;BME280;19550;42.872;25.494;2023-07-16T12:35:50;96599.09;;;36.98;37.89
33185;BME280;19550;42.872;25.494;2023-07-16T12:38:18;96602.97;;;36.29;39.34
33185;BME280;19550;42.872;25.494;2023-07-16T12:40:45;96598.13;;;36.35;39.35
33185;BME280;19550;42.872;25.494;2023-07-16T12:43:11;96594.75;;;36.37;46.32
33185;BME280;19550;42.872;25.494;2023-07-16T12:45:38;96599.56;;;36.40;45.01
33185;BME280;19550;42.872;25.494;2023-07-16T12:48:05;96596.09;;;36.59;38.81
33185;BME280;19550;42.872;25.494;2023-07-16T12:50:32;96601.75;;;37.11;40.26